Latest Coastal Weather Observations for Alva Beach

IDQ60701

Issued at 2:01 am EST Tuesday 7 July 2015 (issued every 10 minutes, with the page automatically refreshed every 10 minutes)

About coastal observations | Map of coastal stations | Coastal observations for QLD | Marine services | Other Formats
Station Details ID: 033295 Name: ALVA BEACH Lat: -19.46 Lon: 147.48 Height: 7.5 m
Data from the previous 72 hours. | See also: Recent months at Alva Beach
Date/Time
EST
Temp

°C
Wind Pressure Rain
since 9am
mm
Weather Cloud Vis
km
Sea
Height
m
Swell
Dir
 
Speed
knots
Gust
knots
hPa Trend Height
m
Period
s
Dir
07/02:00am 16.7 SSW 4 5 1016.2 - 0.0 - - - - - - -
07/01:30am 17.6 SSW 4 5 1016.3 - 0.0 - - - - - - -
07/01:00am 20.7 ESE 7 11 1016.5 - 0.0 - - - - - - -
07/12:30am 21.0 E 8 11 1016.6 - 0.0 - - - - - - -
07/12:00am 21.2 E 8 11 1016.8 - 0.0 - - - - - - -
 
Date/Time
EST
Temp

°C
Wind Pressure Rain
since 9am
mm
Weather Cloud Vis
km
Sea
Height
m
Swell
Dir
 
Speed
knots
Gust
knots
hPa Trend Height
m
Period
s
Dir
06/11:30pm 21.4 E 8 12 1016.9 - 0.0 - - - - - - -
06/11:00pm 21.3 E 8 12 1017.1 - 0.0 - - - - - - -
06/10:30pm 21.5 E 9 11 1017.1 - 0.0 - - - - - - -
06/10:00pm 21.6 E 10 13 1017.1 - 0.0 - - - - - - -
06/09:30pm 21.4 E 10 13 1017.1 - 0.0 - - - - - - -
06/09:00pm 21.5 E 10 13 1017.0 - 0.0 - - - - - - -
06/08:30pm 21.5 E 10 13 1017.1 - 0.0 - - - - - - -
06/08:00pm 21.6 E 10 13 1016.9 - 0.0 - - - - - - -
06/07:30pm 21.5 ENE 10 12 1016.6 - 0.0 - - - - - - -
06/07:00pm 21.5 E 9 11 1016.3 - 0.0 - - - - - - -
06/06:30pm 21.6 ENE 11 13 1016.0 - 0.0 - - - - - - -
06/06:00pm 21.8 ENE 10 12 1015.8 - 0.0 - - - - - - -
06/05:30pm 21.9 ENE 10 12 1015.7 - 0.0 - - - - - - -
06/05:00pm 22.1 ENE 11 13 1015.7 - 0.0 - - - - - - -
06/04:30pm 22.4 ENE 12 14 1015.5 - 0.0 - - - - - - -
06/04:00pm 22.7 ENE 11 13 1015.4 - 0.0 - - - - - - -
06/03:30pm 22.9 ENE 11 13 1015.5 - 0.0 - - - - - - -
06/03:00pm 23.1 ENE 9 12 1015.7 - 0.0 - - - - - - -
06/02:30pm 23.3 E 9 11 1015.8 - 0.0 - - - - - - -
06/02:00pm 23.1 E 8 10 1016.2 - 0.0 - - - - - - -
06/01:30pm 23.0 E 8 12 1016.5 - 0.0 - - - - - - -
06/01:00pm 23.0 E 9 13 1016.9 - 0.0 - - - - - - -
06/12:30pm 23.5 E 9 12 1017.5 - 0.0 - - - - - - -
06/12:00pm 24.3 ESE 7 11 1018.0 - 0.0 - - - - - - -
06/11:30am 24.0 ESE 7 9 1018.3 - 0.0 - - - - - - -
06/11:00am 24.3 ESE 7 11 1018.6 - 0.0 - - - - - - -
06/10:30am 23.8 ESE 8 11 1018.6 - 0.0 - - - - - - -
06/10:00am 23.2 ESE 7 12 1018.8 - 0.0 - - - - - - -
06/09:30am 22.5 ESE 7 12 1018.8 - 0.0 - - - - - - -
06/09:00am 20.7 SSE 3 7 1018.6 - 0.0 - - - - - - -
06/08:30am 18.6 SSW 5 7 1018.4 - 0.0 - - - - - - -
06/08:00am 16.8 SSW 4 7 1018.1 - 0.0 - - - - - - -
06/07:30am 15.5 SW 4 5 1017.9 - 0.0 - - - - - - -
06/07:00am 14.8 SW 5 6 1017.7 - 0.0 - - - - - - -
06/06:30am 14.8 SW 4 6 1017.5 - 0.0 - - - - - - -
06/06:00am 14.9 SW 4 6 1017.5 - 0.0 - - - - - - -
06/05:30am 15.2 SW 5 6 1017.3 - 0.0 - - - - - - -
06/05:00am 15.5 SW 4 5 1017.4 - 0.0 - - - - - - -
06/04:30am 15.7 SSW 4 5 1017.3 - 0.0 - - - - - - -
06/04:00am 16.0 SW 4 5 1017.3 - 0.0 - - - - - - -
06/03:30am 16.4 SSW 5 7 1017.4 - 0.0 - - - - - - -
06/03:00am 17.4 S 4 9 1017.6 - 0.0 - - - - - - -
06/02:30am 20.1 SE 7 12 1017.7 - 0.0 - - - - - - -
06/02:00am 20.1 SE 8 11 1017.9 - 0.0 - - - - - - -
06/01:30am 20.3 SE 8 12 1018.1 - 0.0 - - - - - - -
06/01:00am 20.4 SE 7 14 1018.2 - 0.0 - - - - - - -
06/12:30am 20.6 ESE 8 16 1018.2 - 0.0 - - - - - - -
06/12:00am 20.6 ESE 9 13 1018.3 - 0.0 - - - - - - -
 
Date/Time
EST
Temp

°C
Wind Pressure Rain
since 9am
mm
Weather Cloud Vis
km
Sea
Height
m
Swell
Dir
 
Speed
knots
Gust
knots
hPa Trend Height
m
Period
s
Dir
05/11:30pm 20.7 ESE 8 14 1018.5 - 0.0 - - - - - - -
05/11:00pm 21.0 ESE 11 15 1018.6 - 0.0 - - - - - - -
05/10:30pm 20.9 ESE 9 15 1018.7 - 0.0 - - - - - - -
05/10:00pm 21.1 ESE 10 15 1018.7 - 0.0 - - - - - - -
05/09:30pm 21.3 E 11 15 1018.6 - 0.0 - - - - - - -
05/09:00pm 21.3 E 13 17 1018.6 - 0.0 - - - - - - -
05/08:30pm 21.4 E 14 19 1018.4 - 0.0 - - - - - - -
05/08:00pm 21.4 ESE 11 15 1018.3 - 0.0 - - - - - - -
05/07:30pm 21.2 E 12 17 1018.0 - 0.0 - - - - - - -
05/07:00pm 21.3 ESE 12 17 1017.7 - 0.0 - - - - - - -
05/06:30pm 21.3 E 13 17 1017.5 - 0.0 - - - - - - -
05/06:00pm 21.6 E 12 16 1017.2 - 0.0 - - - - - - -
05/05:30pm 21.8 E 11 15 1017.0 - 0.0 - - - - - - -
05/05:00pm 22.0 E 11 15 1016.9 - 0.0 - - - - - - -
05/04:30pm 22.2 E 10 14 1016.9 - 0.0 - - - - - - -
05/04:00pm 22.6 ESE 10 14 1016.8 - 0.0 - - - - - - -
05/03:30pm 23.3 ESE 9 13 1016.8 - 0.0 - - - - - - -
05/03:00pm 23.9 ESE 8 11 1017.0 - 0.0 - - - - - - -
05/02:30pm 24.3 E 11 14 1017.2 - 0.0 - - - - - - -
05/02:00pm 23.8 ESE 10 15 1017.3 - 0.0 - - - - - - -
05/01:30pm 24.0 ESE 10 15 1017.6 - 0.0 - - - - - - -
05/01:00pm 24.0 ESE 8 13 1018.0 - 0.0 - - - - - - -
05/12:30pm 23.8 ESE 8 13 1018.4 - 0.0 - - - - - - -
05/12:00pm 23.5 ESE 9 14 1018.8 - 0.0 - - - - - - -
05/11:30am 23.0 ESE 11 16 1019.2 - 0.0 - - - - - - -
05/11:00am 23.7 ESE 10 16 1019.5 - 0.0 - - - - - - -
05/10:30am 22.6 ESE 11 15 1019.5 - 0.0 - - - - - - -
05/10:00am 22.1 ESE 10 16 1019.6 - 0.0 - - - - - - -
05/09:30am 21.4 SE 8 13 1019.6 - 0.0 - - - - - - -
05/09:00am 20.8 SE 5 9 1019.5 - 0.0 - - - - - - -
05/08:30am 18.3 S 4 6 1019.3 - 0.0 - - - - - - -
05/08:00am 16.3 SSW 6 10 1019.1 - 0.0 - - - - - - -
05/07:30am 15.0 SSW 5 7 1018.8 - 0.0 - - - - - - -
05/07:00am 14.5 SSW 6 8 1018.5 - 0.0 - - - - - - -
05/06:30am 14.6 SSW 5 7 1018.5 - 0.0 - - - - - - -
05/06:00am 14.6 SW 5 8 1018.2 - 0.0 - - - - - - -
05/05:30am 14.1 WSW 5 7 1017.7 - 0.0 - - - - - - -
05/05:00am 17.3 SE 6 10 1017.5 - 0.0 - - - - - - -
05/04:30am 16.5 SSE 5 9 1017.5 - 0.0 - - - - - - -
05/04:00am 15.6 SSE 5 10 1017.4 - 0.0 - - - - - - -
05/03:30am 15.2 SSW 4 5 1017.4 - 0.0 - - - - - - -
05/03:00am 15.8 SW 4 6 1017.6 - 0.0 - - - - - - -
05/02:30am 19.9 SE 9 15 1017.7 - 0.0 - - - - - - -
05/02:00am 19.8 ESE 9 13 1017.7 - 0.0 - - - - - - -
05/01:30am 19.9 ESE 9 16 1018.0 - 0.0 - - - - - - -
05/01:00am 20.2 ESE 9 16 1018.1 - 0.0 - - - - - - -
05/12:30am 20.2 ESE 12 17 1018.1 - 0.0 - - - - - - -
05/12:00am 20.1 ESE 9 13 1018.4 - 0.0 - - - - - - -
 
Date/Time
EST
Temp

°C
Wind Pressure Rain
since 9am
mm
Weather Cloud Vis
km
Sea
Height
m
Swell
Dir
 
Speed
knots
Gust
knots
hPa Trend Height
m
Period
s
Dir
04/11:30pm 20.2 ESE 10 17 1018.6 - 0.0 - - - - - - -
04/11:00pm 20.5 ESE 8 13 1018.8 - 0.0 - - - - - - -
04/10:30pm 20.6 ESE 10 15 1018.8 - 0.0 - - - - - - -
04/10:00pm 20.6 ESE 11 16 1018.8 - 0.0 - - - - - - -
04/09:30pm 20.9 ESE 9 15 1018.8 - 0.0 - - - - - - -
04/09:00pm 21.0 ESE 9 16 1018.8 - 0.0 - - - - - - -
04/08:30pm 21.3 E 13 17 1018.5 - 0.0 - - - - - - -
04/08:00pm 21.5 E 13 18 1018.1 - 0.0 - - - - - - -
04/07:30pm 21.5 E 13 18 1017.9 - 0.0 - - - - - - -
04/07:00pm 21.4 E 11 17 1017.6 - 0.0 - - - - - - -
04/06:30pm 21.7 E 12 16 1017.3 - 0.0 - - - - - - -
04/06:00pm 21.6 E 12 17 1017.1 - 0.0 - - - - - - -
04/05:30pm 21.6 E 12 15 1016.9 - 0.0 - - - - - - -
04/05:00pm 21.7 ESE 12 17 1016.7 - 0.0 - - - - - - -
04/04:30pm 22.7 ESE 11 16 1016.6 - 0.0 - - - - - - -
04/04:00pm 23.3 ESE 7 12 1016.6 - 0.0 - - - - - - -
04/03:30pm 23.5 ESE 10 15 1016.7 - 0.0 - - - - - - -
04/03:00pm 23.7 ESE 7 12 1016.9 - 0.0 - - - - - - -
04/02:30pm 23.9 ESE 8 13 1017.1 - 0.0 - - - - - - -
04/02:00pm 24.3 ESE 7 13 1017.3 - 0.0 - - - - - - -
04/01:30pm 23.1 ESE 6 11 1017.5 - 0.0 - - - - - - -
04/01:00pm 23.1 ESE 7 12 1018.2 - 0.0 - - - - - - -
04/12:30pm 22.5 ESE 7 13 1018.8 - 0.0 - - - - - - -
04/12:00pm 22.2 ESE 8 11 1019.2 - 0.0 - - - - - - -
04/11:30am 22.4 ESE 9 13 1019.7 - 0.0 - - - - - - -
04/11:00am 22.3 SE 7 11 1020.0 - 0.0 - - - - - - -
04/10:30am 21.1 SE 6 12 1020.0 - 0.0 - - - - - - -
04/10:00am 19.9 S 6 10 1020.2 - 0.0 - - - - - - -
04/09:30am 19.0 SSW 5 10 1020.1 - 0.0 - - - - - - -
04/09:00am 17.8 SSW 6 10 1020.0 - 0.0 - - - - - - -
04/08:30am 15.9 SSW 7 11 1019.7 - 0.0 - - - - - - -
04/08:00am 14.4 SSW 6 10 1019.5 - 0.0 - - - - - - -
04/07:30am 12.8 SSW 5 7 1019.2 - 0.0 - - - - - - -
04/07:00am 11.7 SW 5 7 1018.9 - 0.0 - - - - - - -
04/06:30am 11.8 SSW 5 7 1018.7 - 0.0 - - - - - - -
04/06:00am 12.2 SSW 5 8 1018.4 - 0.0 - - - - - - -
04/05:30am 13.4 SSW 6 8 1018.2 - 0.0 - - - - - - -
04/05:00am 13.3 SSW 6 9 1018.2 - 0.0 - - - - - - -
04/04:30am 13.4 SSW 6 8 1018.3 - 0.0 - - - - - - -
04/04:00am 13.9 SSW 5 7 1018.2 - 0.0 - - - - - - -
04/03:30am 15.2 SSW 5 8 1018.3 - 0.0 - - - - - - -
04/03:00am 18.4 SE 11 17 1018.2 - 0.0 - - - - - - -
04/02:30am 18.7 ESE 10 17 1018.2 - 0.0 - - - - - - -

Other Formats:

Comma delimited format used in spreadsheet applications
http://www.bom.gov.au/fwo/IDQ60701/IDQ60701.95296.axf

JavaScript Object Notation format (JSON) in row-major order
http://www.bom.gov.au/fwo/IDQ60701/IDQ60701.95296.json